Hovedside
METAR-TAF:

METAR-TAF

Lufthavner :

Ørland, Norge

Ørland hovedflystasjon

breddegrad: 63-42N, lengdegrad: 009-36E, høyde over havet: 0 m

Gjeldene værobservasjon

Denne rapporten ble laget for 27 minutter siden, klokken 18:20 UTC
Vind 10 kt fra Sørøst
Temperatur 14°C
Luftfuktighet 67%
Trykk 1022 hPa
Sikt 10 km eller mer
ingen skyer under 1500 m og ingen bygeskyer

METAR: ENOL 221820Z 13010KT CAVOK 14/08 Q1022 NOSIG

Tid: 20:47 (18:47 UTC)

Varsel

Varsel gyldig fra 22. klokken 18 UTC til 23. klokken 18 UTC
Vind 15 kt fra Sørøst
Sikt 10 km eller mer
ingen skyer under 1500 m og ingen bygeskyer
Blir
fra 23. klokken 09 UTC til 23. klokken 12 UTC
Vind 5 kt fra skiftende retning

TAF: ENOL 2218/2318 14015KT CAVOK BECMG 2309/2312 VRB05KT

Værobservasjoner og værvarsel for over 4000 flyplasser (METAR- og TAF-rapporter).

Tilgjengelige stasjoner er representert av de røde og gule prikkene på kartet.

Hold musepekeren over prikken for å se navnet på stasjonen.

Klikk så for å se værobservasjoner og -varsler.

For å forandre kartet kan du klikke på den grønne knappen med svart kryss for å zoome inn, på den grønne knappen med strek for å zoome ut, eller på de grønne pilene for å se tilstøtende kart.


METAR-TAF: